Weather at Camp de vol La Puieda

Public forecast

Using degrees Celsius for public forecast. Weather courtesy of forecast.io.

Closest aviation weather report (METAR) to Camp de vol La Puieda

Closest report is Girona Airport, 23.1 nm (42.8 km) ESE. Retrieved 2020/09/29 14:30 UTC (17 minutes ago):

LEGE 291430Z 15009KT 110V180 CAVOK 22/14 Q1017

Closest aviation forecast (TAF) to Camp de vol La Puieda

Closest forecast is Girona Airport, 23.1 nm (42.8 km) ESE. Retrieved 2020/09/29 12:27 UTC (2 hours ago):

TAF LEGE 291100Z 2912/3012 18012KT 9999 SCT020 TX25/2913Z TN11/3006Z BECMG 2918/2920 VRB03KT PROB30 TEMPO 3000/3006 3000 BR BKN014